ELLX/LUX METAR and TAF weather

Enter ICAO airport designator
Station Type Date Time Source
ELLX METAR 2020/12/06 01:20 UTC NOAA

ELLX 060120Z AUTO 05006KT 9999 NCD 01/M00 Q0999 NOSIG


Station Type Date Time Source
ELLX Decoded METAR 2020/12/06 01:20 UTC NOAA

Luxembourg / Luxembourg, Luxembourg (ELLX) 49-37N 006-13E 379M
Dec 05, 2020 - 08:20 PM EST / 2020.12.06 0120 UTC
Wind: from the NE (050 degrees) at 7 MPH (6 KT):0
Visibility: greater than 7 mile(s):0
Temperature: 33 F (1 C)
Windchill: 26 F (-3 C):1
Dew Point: 32 F (0 C)
Relative Humidity: 93%
Pressure (altimeter): 29.50 in. Hg (0999 hPa)
ob: ELLX 060120Z AUTO 05006KT 9999 NCD 01/M00 Q0999 NOSIG
cycle: 1

Station Type Date Time Source
ELLX TAF 2020/12/05 18:27 UTC NOAA

TAF ELLX 051700Z 0518/0624 12006KT CAVOK
TEMPO 0601/0610 3000 BR NSC PROB30 0603/0610 0500 FZFG VV001

Example: see airport list